Terminal Aerodrome Forecast
Issued by NWS

Home | Current Version | Previous Version | Text Only | Print | Product List | Glossary On
Versions: 1 2 3 4 5 6 7 8 9 10 11
344
FTUS43 KAPX 251731
TAFTVC
TAF
KTVC 251731Z 2518/2618 16009KT P6SM SCT040
     FM260000 13007KT P6SM BKN120
     FM261500 15011G23KT P6SM BKN040=

USA.gov is the U.S. government's official web portal to all federal, state and local government web resources and services.